createdAt,value
2019-06-15T00:00:32.425Z,9.13
2019-06-15T00:03:01.915Z,9.23
2019-06-15T00:05:31.488Z,9.53
2019-06-15T00:08:04.029Z,9.70
2019-06-15T00:10:32.341Z,10.43
2019-06-15T00:13:01.899Z,9.80
2019-06-15T00:15:31.496Z,9.50
2019-06-15T00:18:01.165Z,9.07
2019-06-15T00:20:30.672Z,9.43
2019-06-15T00:23:00.132Z,10.23
2019-06-15T00:25:32.486Z,9.60
2019-06-15T00:28:02.349Z,9.17
2019-06-15T00:30:31.897Z,9.40
2019-06-15T00:33:01.434Z,9.77
2019-06-15T00:35:31.075Z,9.87
2019-06-15T00:38:00.881Z,10.23
2019-06-15T00:40:30.458Z,9.40
2019-06-15T00:42:59.996Z,9.67
2019-06-15T00:45:29.480Z,10.03
2019-06-15T00:47:59.024Z,9.63
2019-06-15T00:50:28.543Z,9.80
2019-06-15T00:52:58.196Z,9.50
2019-06-15T00:55:27.722Z,9.23
2019-06-15T00:57:57.276Z,9.93
2019-06-15T01:00:27.021Z,9.30
2019-06-15T01:02:56.546Z,10.00
2019-06-15T01:05:26.197Z,9.90
2019-06-15T01:07:55.682Z,9.97
2019-06-15T01:10:25.303Z,9.73
2019-06-15T01:12:54.831Z,9.77
2019-06-15T01:15:24.657Z,9.63
2019-06-15T01:17:54.169Z,9.57
2019-06-15T01:20:23.735Z,9.73
2019-06-15T01:22:53.306Z,9.30
2019-06-15T01:25:22.973Z,9.30
2019-06-15T01:27:52.441Z,9.80
2019-06-15T01:30:22.227Z,9.40
2019-06-15T01:32:51.717Z,9.77
2019-06-15T01:35:21.351Z,9.97
2019-06-15T01:37:50.846Z,9.47
2019-06-15T01:40:20.495Z,9.47
2019-06-15T01:42:50.011Z,9.50
2019-06-15T01:45:25.947Z,10.90
2019-06-15T01:47:56.026Z,10.13
2019-06-15T01:50:25.585Z,9.57
2019-06-15T01:52:55.091Z,9.50
2019-06-15T01:55:24.532Z,9.77
2019-06-15T01:57:54.066Z,9.53
2019-06-15T02:00:26.010Z,9.63
2019-06-15T02:02:55.540Z,9.27
2019-06-15T02:05:25.010Z,9.90
2019-06-15T02:07:54.503Z,9.30
2019-06-15T02:10:29.218Z,8.97
2019-06-15T02:12:59.316Z,9.73
2019-06-15T02:15:29.038Z,10.27
2019-06-15T02:17:58.582Z,9.43
2019-06-15T02:20:28.120Z,9.17
2019-06-15T02:22:57.628Z,9.90
2019-06-15T02:25:35.897Z,9.53
2019-06-15T02:28:00.626Z,10.07
2019-06-15T02:30:32.069Z,9.77
2019-06-15T02:33:01.848Z,9.10
2019-06-15T02:35:31.648Z,9.57
2019-06-15T02:38:01.323Z,10.60
2019-06-15T02:40:30.953Z,9.87
2019-06-15T02:43:00.526Z,10.90
2019-06-15T02:45:30.076Z,10.17
2019-06-15T02:47:59.682Z,11.43
2019-06-15T02:50:29.246Z,10.50
2019-06-15T02:52:58.890Z,11.00
2019-06-15T02:55:28.458Z,10.63
2019-06-15T02:57:57.957Z,11.70
2019-06-15T03:00:41.001Z,11.13
2019-06-15T03:03:10.575Z,10.77
2019-06-15T03:05:40.267Z,11.03
2019-06-15T03:08:09.930Z,11.13
2019-06-15T03:10:39.425Z,11.97
2019-06-15T03:13:09.006Z,11.33
2019-06-15T03:15:38.533Z,12.07
2019-06-15T03:18:08.020Z,12.37
2019-06-15T03:20:37.609Z,11.83
2019-06-15T03:23:07.086Z,11.90
2019-06-15T03:25:36.637Z,11.87
2019-06-15T03:28:06.126Z,12.33
2019-06-15T03:30:35.732Z,12.20
2019-06-15T03:33:05.411Z,12.40
2019-06-15T03:35:39.455Z,11.97
2019-06-15T03:38:06.199Z,12.03
2019-06-15T03:40:35.750Z,13.20
2019-06-15T03:43:05.531Z,11.33
2019-06-15T03:45:35.008Z,12.57
2019-06-15T03:48:04.684Z,12.10
2019-06-15T03:50:34.149Z,12.13
2019-06-15T03:53:03.708Z,12.27
2019-06-15T03:55:33.246Z,11.80
2019-06-15T03:58:02.776Z,11.93
2019-06-15T04:00:55.173Z,12.60
2019-06-15T04:03:24.679Z,12.83
2019-06-15T04:05:54.182Z,12.57
2019-06-15T04:08:23.653Z,12.80
2019-06-15T04:10:53.185Z,12.13
2019-06-15T04:13:22.928Z,12.60
2019-06-15T04:16:04.950Z,12.33
2019-06-15T04:18:34.447Z,13.57
2019-06-15T04:21:04.009Z,12.97
2019-06-15T04:23:33.491Z,12.80
2019-06-15T04:26:03.030Z,12.20
2019-06-15T04:28:32.744Z,12.70
2019-06-15T04:31:02.311Z,11.90
2019-06-15T04:33:31.794Z,11.77
2019-06-15T04:36:01.565Z,12.40
2019-06-15T04:38:31.054Z,12.60
2019-06-15T04:41:01.619Z,11.43
2019-06-15T04:43:32.846Z,11.20
2019-06-15T04:46:02.360Z,11.93
2019-06-15T04:48:31.834Z,11.87
2019-06-15T04:51:01.322Z,11.17
2019-06-15T04:53:30.871Z,11.63
2019-06-15T04:56:00.383Z,10.73
2019-06-15T04:58:30.082Z,11.30
2019-06-15T05:00:59.575Z,11.83
2019-06-15T05:03:29.120Z,11.43
2019-06-15T05:05:58.636Z,10.93
2019-06-15T05:08:28.134Z,10.97
2019-06-15T05:10:59.997Z,10.67
2019-06-15T05:13:28.827Z,11.50
2019-06-15T05:15:58.467Z,10.87
2019-06-15T05:18:27.957Z,10.67
2019-06-15T05:20:57.535Z,10.73
2019-06-15T05:23:27.057Z,10.77
2019-06-15T05:25:56.558Z,10.83
2019-06-15T05:28:26.055Z,10.80
2019-06-15T05:30:55.543Z,10.87
2019-06-15T05:33:25.118Z,10.10
2019-06-15T05:35:54.599Z,10.93
2019-06-15T05:38:24.143Z,10.63
2019-06-15T05:40:53.647Z,10.50
2019-06-15T05:43:23.179Z,10.40
2019-06-15T05:45:52.727Z,9.90
2019-06-15T05:48:22.241Z,10.17
2019-06-15T05:50:51.801Z,10.07
2019-06-15T05:53:21.300Z,11.13
2019-06-15T05:55:50.834Z,10.13
2019-06-15T05:58:20.433Z,9.90
2019-06-15T06:00:49.936Z,9.70
2019-06-15T06:03:19.473Z,9.80
2019-06-15T06:05:48.971Z,10.27
2019-06-15T06:08:18.442Z,10.30
2019-06-15T06:10:48.036Z,10.03
2019-06-15T06:13:17.615Z,10.03
2019-06-15T06:15:47.231Z,9.90
2019-06-15T06:18:16.792Z,10.33
2019-06-15T06:20:46.340Z,10.20
2019-06-15T06:23:15.855Z,10.20
2019-06-15T06:25:45.334Z,10.27
2019-06-15T06:28:14.916Z,10.07
2019-06-15T06:30:44.417Z,10.17
2019-06-15T06:33:13.933Z,10.17
2019-06-15T06:35:43.838Z,10.43
2019-06-15T06:38:13.422Z,9.93
2019-06-15T06:40:42.928Z,10.47
2019-06-15T06:43:12.492Z,10.60
2019-06-15T06:45:42.112Z,10.57
2019-06-15T06:48:11.625Z,10.50
2019-06-15T06:50:41.383Z,10.20
2019-06-15T06:53:10.935Z,10.47
2019-06-15T06:55:40.485Z,10.87
2019-06-15T06:58:10.084Z,10.17
2019-06-15T07:00:39.584Z,10.13
2019-06-15T07:03:09.176Z,10.47
2019-06-15T07:05:38.832Z,10.50
2019-06-15T07:08:08.366Z,10.40
2019-06-15T07:10:37.861Z,10.70
2019-06-15T07:13:07.419Z,10.00
2019-06-15T07:15:37.013Z,10.30
2019-06-15T07:18:06.519Z,11.60
2019-06-15T07:20:36.161Z,10.47
2019-06-15T07:23:05.721Z,11.10
2019-06-15T07:25:35.321Z,11.57
2019-06-15T07:28:08.295Z,11.00
2019-06-15T07:30:36.265Z,11.17
2019-06-15T07:33:05.756Z,10.90
2019-06-15T07:35:35.295Z,10.97
2019-06-15T07:38:04.851Z,12.30
2019-06-15T07:40:34.374Z,12.00
2019-06-15T07:43:03.875Z,10.97
2019-06-15T07:45:33.594Z,11.77
2019-06-15T07:48:03.260Z,11.00
2019-06-15T07:50:32.903Z,11.20
2019-06-15T07:53:02.520Z,12.20
2019-06-15T07:55:33.750Z,11.23
2019-06-15T07:58:03.260Z,11.43
2019-06-15T08:00:32.904Z,11.97
2019-06-15T08:03:02.554Z,11.83
2019-06-15T08:05:32.104Z,11.67
2019-06-15T08:08:02.003Z,12.03
2019-06-15T08:10:31.725Z,12.17
2019-06-15T08:13:01.411Z,12.77
2019-06-15T08:15:31.102Z,12.90
2019-06-15T08:18:00.750Z,12.13
2019-06-15T08:20:33.559Z,11.80
2019-06-15T08:23:03.476Z,12.63
2019-06-15T08:25:33.102Z,12.03
2019-06-15T08:28:03.305Z,12.87
2019-06-15T08:30:41.350Z,12.58
2019-06-15T08:33:11.160Z,12.67
2019-06-15T08:35:40.732Z,12.57
2019-06-15T08:38:10.305Z,12.77
2019-06-15T08:40:39.878Z,12.83
2019-06-15T08:43:09.511Z,12.57
2019-06-15T08:45:39.021Z,12.20
2019-06-15T08:48:08.895Z,12.55
2019-06-15T08:50:38.502Z,12.07
2019-06-15T08:53:08.112Z,12.75
2019-06-15T08:55:37.665Z,12.30
2019-06-15T08:58:07.195Z,13.43
2019-06-15T09:00:36.905Z,12.13
2019-06-15T09:03:12.493Z,12.58
2019-06-15T09:05:42.269Z,12.55
2019-06-15T09:08:11.822Z,12.50
2019-06-15T09:10:42.684Z,12.13
2019-06-15T09:13:12.216Z,12.13
2019-06-15T09:15:50.472Z,12.73
2019-06-15T09:18:20.203Z,14.70
2019-06-15T09:20:50.483Z,13.13
2019-06-15T09:23:20.383Z,13.28
2019-06-15T09:25:50.028Z,13.88
2019-06-15T09:28:19.556Z,13.65
2019-06-15T09:30:49.076Z,13.72
2019-06-15T09:33:18.562Z,13.30
2019-06-15T09:35:48.469Z,13.10
2019-06-15T09:38:18.192Z,14.25
2019-06-15T09:40:48.034Z,14.50
2019-06-15T09:43:17.704Z,15.30
2019-06-15T09:45:47.393Z,13.45
2019-06-15T09:48:16.877Z,14.50
2019-06-15T09:50:46.441Z,13.55
2019-06-15T09:53:16.132Z,13.58
2019-06-15T09:55:45.898Z,14.73
2019-06-15T09:58:15.365Z,13.43
2019-06-15T10:00:45.056Z,14.47
2019-06-15T10:03:14.693Z,14.25
2019-06-15T10:05:44.330Z,13.40
2019-06-15T10:08:14.101Z,14.38
2019-06-15T10:10:43.778Z,15.38
2019-06-15T10:13:13.343Z,13.50
2019-06-15T10:15:42.962Z,13.68
2019-06-15T10:18:12.634Z,13.80
2019-06-15T10:20:42.283Z,13.88
2019-06-15T10:23:11.888Z,13.95
2019-06-15T10:25:41.435Z,13.13
2019-06-15T10:28:11.021Z,14.25
2019-06-15T10:30:42.066Z,13.60
2019-06-15T10:33:11.669Z,13.60
2019-06-15T10:35:41.158Z,12.90
2019-06-15T10:38:10.972Z,14.03
2019-06-15T10:40:40.549Z,14.47
2019-06-15T10:43:10.161Z,14.63
2019-06-15T10:45:39.813Z,13.58
2019-06-15T10:48:09.539Z,13.15
2019-06-15T10:50:39.159Z,13.45
2019-06-15T10:53:08.844Z,13.50
2019-06-15T10:55:38.562Z,14.87
2019-06-15T10:58:08.273Z,13.95
2019-06-15T11:00:39.756Z,14.87
2019-06-15T11:03:09.536Z,14.30
2019-06-15T11:05:39.180Z,14.00
2019-06-15T11:08:09.032Z,15.10
2019-06-15T11:10:57.593Z,14.80
2019-06-15T11:13:27.861Z,15.25
2019-06-15T11:15:58.122Z,14.98
2019-06-15T11:18:28.490Z,14.80
2019-06-15T11:20:58.950Z,14.53
2019-06-15T11:23:48.167Z,14.90
2019-06-15T11:26:17.730Z,14.65
2019-06-15T11:28:47.426Z,14.90
2019-06-15T11:31:17.024Z,15.25
2019-06-15T11:33:46.608Z,15.10
2019-06-15T11:36:16.244Z,14.65
2019-06-15T11:38:45.849Z,15.83
2019-06-15T11:41:15.452Z,14.55
2019-06-15T11:43:44.965Z,14.28
2019-06-15T11:46:14.544Z,15.13
2019-06-15T11:48:44.031Z,15.00
2019-06-15T11:51:13.509Z,14.98
2019-06-15T11:53:43.084Z,15.88
2019-06-15T11:56:12.705Z,15.72
2019-06-15T11:58:42.325Z,14.95
2019-06-15T12:01:12.107Z,14.58
2019-06-15T12:03:41.587Z,14.23
2019-06-15T12:06:11.212Z,14.43
2019-06-15T12:08:41.007Z,14.05
2019-06-15T12:11:10.570Z,14.23
2019-06-15T12:13:40.207Z,14.50
2019-06-15T12:16:10.023Z,12.95
2019-06-15T12:18:39.920Z,12.10
2019-06-15T12:21:09.487Z,13.30
2019-06-15T12:23:39.183Z,12.40
2019-06-15T12:26:08.811Z,13.08
2019-06-15T12:28:38.629Z,13.50
2019-06-15T12:31:08.475Z,12.07
2019-06-15T12:33:38.035Z,12.47
2019-06-15T12:36:18.870Z,11.85
2019-06-15T12:38:39.858Z,11.65
2019-06-15T12:41:09.509Z,11.90
2019-06-15T12:43:39.096Z,11.55
2019-06-15T12:46:08.785Z,10.38
2019-06-15T12:48:39.776Z,11.63
2019-06-15T12:51:09.296Z,11.25
2019-06-15T12:53:38.926Z,11.93
2019-06-15T12:56:08.563Z,11.97
2019-06-15T12:58:38.247Z,11.25
2019-06-15T13:01:07.958Z,11.05
2019-06-15T13:03:49.196Z,12.00
2019-06-15T13:06:18.944Z,10.93
2019-06-15T13:08:48.468Z,11.35
2019-06-15T13:11:18.188Z,10.88
2019-06-15T13:13:47.762Z,9.23
2019-06-15T13:16:17.354Z,8.75
2019-06-15T13:18:47.032Z,9.03
2019-06-15T13:21:16.726Z,8.45
2019-06-15T13:23:46.205Z,7.80
2019-06-15T13:26:15.894Z,8.03
2019-06-15T13:28:45.512Z,8.85
2019-06-15T13:31:18.359Z,8.15
2019-06-15T13:33:46.306Z,8.60
2019-06-15T13:36:15.931Z,8.85
2019-06-15T13:38:45.746Z,8.43
2019-06-15T13:41:15.453Z,9.20
2019-06-15T13:43:45.225Z,9.25
2019-06-15T13:46:14.785Z,8.68
2019-06-15T13:48:44.378Z,8.48
2019-06-15T13:51:13.885Z,7.95
2019-06-15T13:53:43.402Z,7.75
2019-06-15T13:56:12.980Z,7.45
2019-06-15T13:58:42.667Z,7.22
2019-06-15T14:01:12.420Z,7.55
2019-06-15T14:03:42.024Z,6.97
2019-06-15T14:06:11.698Z,6.75
2019-06-15T14:08:41.274Z,7.35
2019-06-15T14:11:10.850Z,6.00
2019-06-15T14:13:40.335Z,5.78
2019-06-15T14:16:10.214Z,5.65
2019-06-15T14:18:39.892Z,5.25
2019-06-15T14:21:09.432Z,5.28
2019-06-15T14:23:39.154Z,6.10
2019-06-15T14:26:08.844Z,5.80
2019-06-15T14:28:38.392Z,4.85
2019-06-15T14:31:08.059Z,5.17
2019-06-15T14:33:37.730Z,4.00
2019-06-15T14:36:07.519Z,3.60
2019-06-15T14:38:37.086Z,3.70
2019-06-15T14:41:06.573Z,3.87
2019-06-15T14:43:36.141Z,3.62
2019-06-15T14:46:05.830Z,3.58
2019-06-15T14:48:35.445Z,3.90
2019-06-15T14:51:05.269Z,3.90
2019-06-15T14:53:36.701Z,4.20
2019-06-15T14:56:06.785Z,4.87
2019-06-15T14:58:36.691Z,4.42
2019-06-15T15:01:06.633Z,4.53
2019-06-15T15:03:37.648Z,4.50
2019-06-15T15:06:07.645Z,5.12
2019-06-15T15:08:37.137Z,5.08
2019-06-15T15:11:06.769Z,5.92
2019-06-15T15:13:36.795Z,7.47
2019-06-15T15:16:07.210Z,5.78
2019-06-15T15:18:36.819Z,5.50
2019-06-15T15:21:06.960Z,5.62
2019-06-15T15:23:36.700Z,5.20
2019-06-15T15:26:06.625Z,6.08
2019-06-15T15:28:36.663Z,5.03
2019-06-15T15:31:06.754Z,4.97
2019-06-15T15:33:36.590Z,5.30
2019-06-15T15:36:07.202Z,5.37
2019-06-15T15:38:37.063Z,5.30
2019-06-15T15:41:06.840Z,4.78
2019-06-15T15:43:36.921Z,5.10
2019-06-15T15:46:07.098Z,6.08
2019-06-15T15:48:36.855Z,8.18
2019-06-15T15:51:06.685Z,8.80
2019-06-15T15:53:37.408Z,8.43
2019-06-15T15:56:07.371Z,9.85
2019-06-15T15:58:36.914Z,9.30
2019-06-15T16:01:06.707Z,8.73
2019-06-15T16:03:37.091Z,8.43
2019-06-15T16:06:06.970Z,8.85
2019-06-15T16:08:36.677Z,8.28
2019-06-15T16:11:06.408Z,8.03
2019-06-15T16:13:36.105Z,7.53
2019-06-15T16:16:05.703Z,7.85
2019-06-15T16:18:36.483Z,7.30
2019-06-15T16:21:06.515Z,7.62
2019-06-15T16:23:36.111Z,8.00
2019-06-15T16:26:06.016Z,7.30
2019-06-15T16:28:36.619Z,7.10
2019-06-15T16:31:13.144Z,7.12
2019-06-15T16:33:37.597Z,5.83
2019-06-15T16:36:07.321Z,6.35
2019-06-15T16:38:37.241Z,6.97
2019-06-15T16:41:06.883Z,6.20
2019-06-15T16:43:37.058Z,5.92
2019-06-15T16:46:06.873Z,6.10
2019-06-15T16:48:36.564Z,5.97
2019-06-15T16:51:06.795Z,6.43
2019-06-15T16:53:37.306Z,6.55
2019-06-15T16:56:07.216Z,6.70
2019-06-15T16:58:37.039Z,6.67
2019-06-15T17:01:06.853Z,6.70
2019-06-15T17:03:36.856Z,7.17
2019-06-15T17:06:07.257Z,7.07
2019-06-15T17:08:37.044Z,6.92
2019-06-15T17:11:06.925Z,6.67
2019-06-15T17:13:37.116Z,7.00
2019-06-15T17:16:06.924Z,6.72
2019-06-15T17:18:36.695Z,7.20
2019-06-15T17:21:07.015Z,7.55
2019-06-15T17:23:36.855Z,8.60
2019-06-15T17:26:06.584Z,7.58
2019-06-15T17:28:36.995Z,7.17
2019-06-15T17:31:06.922Z,7.47
2019-06-15T17:33:38.236Z,6.40
2019-06-15T17:36:07.784Z,5.50
2019-06-15T17:38:37.312Z,6.37
2019-06-15T17:41:06.984Z,6.70
2019-06-15T17:43:36.652Z,5.70
2019-06-15T17:46:07.219Z,6.55
2019-06-15T17:48:37.195Z,6.50
2019-06-15T17:51:06.876Z,7.25
2019-06-15T17:53:36.896Z,5.80
2019-06-15T17:56:07.243Z,5.00
2019-06-15T17:58:37.203Z,4.10
2019-06-15T18:01:06.873Z,4.37
2019-06-15T18:03:49.837Z,4.70
2019-06-15T18:06:08.086Z,4.73
2019-06-15T18:08:37.739Z,4.70
2019-06-15T18:11:07.458Z,4.83
2019-06-15T18:13:37.347Z,4.57
2019-06-15T18:16:07.087Z,4.77
2019-06-15T18:18:37.240Z,5.20
2019-06-15T18:21:06.915Z,4.30
2019-06-15T18:23:36.918Z,4.43
2019-06-15T18:26:07.283Z,4.67
2019-06-15T18:28:36.945Z,4.00
2019-06-15T18:31:06.777Z,4.63
2019-06-15T18:33:37.327Z,4.07
2019-06-15T18:36:06.961Z,4.57
2019-06-15T18:38:37.210Z,4.60
2019-06-15T18:41:07.436Z,4.40
2019-06-15T18:43:37.279Z,4.53
2019-06-15T18:46:07.275Z,4.40
2019-06-15T18:48:37.943Z,5.63
2019-06-15T18:51:07.722Z,4.27
2019-06-15T18:53:39.303Z,4.40
2019-06-15T18:56:08.747Z,4.03
2019-06-15T18:58:38.360Z,4.13
2019-06-15T19:01:07.952Z,3.80
2019-06-15T19:03:39.142Z,3.60
2019-06-15T19:06:08.884Z,4.27
2019-06-15T19:08:38.538Z,3.73
2019-06-15T19:11:08.040Z,3.80
2019-06-15T19:13:37.754Z,3.60
2019-06-15T19:16:07.356Z,4.87
2019-06-15T19:18:37.097Z,3.60
2019-06-15T19:21:07.130Z,3.77
2019-06-15T19:23:36.799Z,3.93
2019-06-15T19:26:06.604Z,3.67
2019-06-15T19:28:36.999Z,4.40
2019-06-15T19:31:06.948Z,3.60
2019-06-15T19:33:37.650Z,3.60
2019-06-15T19:36:07.786Z,3.40
2019-06-15T19:38:37.348Z,3.50
2019-06-15T19:41:07.149Z,3.43
2019-06-15T19:43:36.876Z,3.93
2019-06-15T19:46:07.212Z,3.63
2019-06-15T19:48:37.125Z,4.00
2019-06-15T19:51:09.944Z,3.60
2019-06-15T19:53:37.928Z,3.27
2019-06-15T19:56:07.533Z,3.60
2019-06-15T19:58:37.040Z,3.80
2019-06-15T20:01:06.975Z,3.83
2019-06-15T20:03:36.756Z,4.17
2019-06-15T20:06:06.684Z,3.50
2019-06-15T20:08:36.472Z,3.60
2019-06-15T20:11:07.215Z,3.90
2019-06-15T20:13:37.339Z,3.80
2019-06-15T20:16:07.997Z,4.13
2019-06-15T20:18:37.754Z,4.30
2019-06-15T20:21:07.531Z,3.93
2019-06-15T20:23:37.665Z,4.27
2019-06-15T20:26:07.410Z,4.20
2019-06-15T20:28:36.903Z,3.93
2019-06-15T20:31:06.810Z,4.47
2019-06-15T20:33:37.031Z,4.17
2019-06-15T20:36:06.969Z,4.20
2019-06-15T20:38:36.681Z,4.17
2019-06-15T20:41:07.317Z,4.30
2019-06-15T20:43:37.130Z,3.93
2019-06-15T20:46:07.186Z,3.90
2019-06-15T20:48:36.879Z,4.13
2019-06-15T20:51:10.026Z,4.33
2019-06-15T20:53:37.876Z,4.70
2019-06-15T20:56:07.390Z,4.00
2019-06-15T20:58:37.451Z,4.40
2019-06-15T21:01:07.310Z,3.87
2019-06-15T21:03:37.048Z,3.60
2019-06-15T21:06:07.040Z,4.03
2019-06-15T21:08:36.920Z,3.87
2019-06-15T21:11:07.060Z,4.00
2019-06-15T21:13:37.492Z,3.57
2019-06-15T21:16:07.486Z,3.73
2019-06-15T21:18:37.425Z,4.07
2019-06-15T21:21:07.189Z,3.83
2019-06-15T21:23:37.384Z,3.63
2019-06-15T21:26:07.544Z,4.20
2019-06-15T21:28:37.291Z,3.70
2019-06-15T21:31:07.026Z,3.93
2019-06-15T21:33:36.653Z,3.70
2019-06-15T21:36:06.494Z,3.50
2019-06-15T21:38:36.384Z,4.07
2019-06-15T21:41:07.852Z,3.50
2019-06-15T21:43:37.623Z,3.77
2019-06-15T21:46:16.713Z,3.57
2019-06-15T21:48:46.944Z,3.53
2019-06-15T21:51:16.691Z,3.30
2019-06-15T21:53:46.983Z,2.93
2019-06-15T21:56:16.674Z,2.80
2019-06-15T21:58:46.357Z,3.30
2019-06-15T22:01:23.113Z,2.40
2019-06-15T22:03:52.713Z,2.13
2019-06-15T22:06:22.306Z,1.97
2019-06-15T22:08:51.912Z,1.90
2019-06-15T22:11:21.576Z,2.10
2019-06-15T22:13:51.151Z,2.00
2019-06-15T22:16:20.777Z,1.57
2019-06-15T22:18:50.386Z,2.27
2019-06-15T22:21:19.996Z,2.07
2019-06-15T22:23:49.476Z,1.40
2019-06-15T22:26:19.132Z,1.63
2019-06-15T22:28:48.738Z,1.80
2019-06-15T22:31:18.351Z,1.63
2019-06-15T22:33:47.909Z,1.57
2019-06-15T22:36:24.916Z,1.53
2019-06-15T22:38:48.821Z,1.53
2019-06-15T22:41:18.375Z,1.30
2019-06-15T22:43:47.982Z,1.13
2019-06-15T22:46:17.677Z,1.30
2019-06-15T22:48:47.390Z,1.43
2019-06-15T22:51:17.140Z,1.20
2019-06-15T22:53:47.253Z,1.20
2019-06-15T22:56:17.382Z,1.30
2019-06-15T22:58:47.056Z,1.10
2019-06-15T23:01:17.069Z,1.10
2019-06-15T23:03:46.842Z,0.90
2019-06-15T23:06:16.622Z,1.03
2019-06-15T23:08:47.059Z,1.10
2019-06-15T23:11:17.462Z,1.00
2019-06-15T23:13:47.253Z,1.20
2019-06-15T23:16:16.894Z,1.10
2019-06-15T23:18:46.890Z,1.10
2019-06-15T23:21:17.286Z,1.00
2019-06-15T23:23:47.401Z,1.13
2019-06-15T23:26:16.948Z,1.10
2019-06-15T23:28:46.877Z,1.30
2019-06-15T23:31:16.834Z,1.10
2019-06-15T23:33:46.949Z,1.10
2019-06-15T23:36:22.167Z,1.00
2019-06-15T23:38:51.646Z,1.10
2019-06-15T23:41:21.292Z,1.10
2019-06-15T23:43:50.831Z,1.10
2019-06-15T23:46:20.366Z,1.20
2019-06-15T23:48:49.920Z,1.10
2019-06-15T23:51:19.493Z,1.10
2019-06-15T23:53:48.985Z,0.90
2019-06-15T23:56:18.581Z,1.20
